sensor_id;sensor_type;location;lat;lon;timestamp;P1;durP1;ratioP1;P2;durP2;ratioP2
19687;SDS011;9993;52.008;4.732;2023-02-28T00:00:07;6.27;;;2.60;;
19687;SDS011;9993;52.008;4.732;2023-02-28T00:02:39;3.47;;;2.57;;
19687;SDS011;9993;52.008;4.732;2023-02-28T00:05:05;6.17;;;2.60;;
19687;SDS011;9993;52.008;4.732;2023-02-28T00:07:30;4.37;;;2.73;;
19687;SDS011;9993;52.008;4.732;2023-02-28T00:09:56;5.10;;;2.67;;
19687;SDS011;9993;52.008;4.732;2023-02-28T00:12:21;3.00;;;2.70;;
19687;SDS011;9993;52.008;4.732;2023-02-28T00:14:46;2.97;;;2.70;;
19687;SDS011;9993;52.008;4.732;2023-02-28T00:17:12;4.80;;;2.70;;
19687;SDS011;9993;52.008;4.732;2023-02-28T00:19:37;4.63;;;2.80;;
19687;SDS011;9993;52.008;4.732;2023-02-28T00:22:02;6.13;;;2.57;;
19687;SDS011;9993;52.008;4.732;2023-02-28T00:24:27;3.50;;;3.20;;
19687;SDS011;9993;52.008;4.732;2023-02-28T00:26:52;5.53;;;2.43;;
19687;SDS011;9993;52.008;4.732;2023-02-28T00:29:18;3.80;;;2.90;;
19687;SDS011;9993;52.008;4.732;2023-02-28T00:31:43;5.57;;;2.77;;
19687;SDS011;9993;52.008;4.732;2023-02-28T00:34:08;2.40;;;2.20;;
19687;SDS011;9993;52.008;4.732;2023-02-28T00:36:33;4.37;;;2.43;;
19687;SDS011;9993;52.008;4.732;2023-02-28T00:38:58;3.50;;;2.60;;
19687;SDS011;9993;52.008;4.732;2023-02-28T00:41:24;3.20;;;2.73;;
19687;SDS011;9993;52.008;4.732;2023-02-28T00:43:49;3.10;;;2.40;;
19687;SDS011;9993;52.008;4.732;2023-02-28T00:46:14;4.10;;;2.57;;
19687;SDS011;9993;52.008;4.732;2023-02-28T00:48:39;2.43;;;2.23;;
19687;SDS011;9993;52.008;4.732;2023-02-28T00:51:05;4.87;;;2.40;;
19687;SDS011;9993;52.008;4.732;2023-02-28T00:53:30;3.50;;;2.80;;
19687;SDS011;9993;52.008;4.732;2023-02-28T00:55:57;5.03;;;2.67;;
19687;SDS011;9993;52.008;4.732;2023-02-28T00:58:23;4.27;;;2.60;;
19687;SDS011;9993;52.008;4.732;2023-02-28T01:00:48;2.97;;;2.67;;
19687;SDS011;9993;52.008;4.732;2023-02-28T01:03:14;3.93;;;2.90;;
19687;SDS011;9993;52.008;4.732;2023-02-28T01:05:39;7.00;;;2.30;;
19687;SDS011;9993;52.008;4.732;2023-02-28T01:08:05;3.00;;;2.70;;
19687;SDS011;9993;52.008;4.732;2023-02-28T01:10:31;3.43;;;2.77;;
19687;SDS011;9993;52.008;4.732;2023-02-28T01:12:56;4.20;;;2.60;;
19687;SDS011;9993;52.008;4.732;2023-02-28T01:15:21;3.17;;;2.87;;
19687;SDS011;9993;52.008;4.732;2023-02-28T01:17:47;2.60;;;2.20;;
19687;SDS011;9993;52.008;4.732;2023-02-28T01:20:12;3.77;;;2.50;;
19687;SDS011;9993;52.008;4.732;2023-02-28T01:22:37;4.30;;;2.83;;
19687;SDS011;9993;52.008;4.732;2023-02-28T01:25:02;3.97;;;2.90;;
19687;SDS011;9993;52.008;4.732;2023-02-28T01:27:28;6.87;;;3.17;;
19687;SDS011;9993;52.008;4.732;2023-02-28T01:29:53;4.80;;;2.80;;
19687;SDS011;9993;52.008;4.732;2023-02-28T01:32:22;3.30;;;2.43;;
19687;SDS011;9993;52.008;4.732;2023-02-28T01:34:47;2.80;;;2.60;;
19687;SDS011;9993;52.008;4.732;2023-02-28T01:37:31;3.70;;;2.80;;
19687;SDS011;9993;52.008;4.732;2023-02-28T01:39:56;3.77;;;2.47;;
19687;SDS011;9993;52.008;4.732;2023-02-28T01:42:21;4.60;;;3.07;;
19687;SDS011;9993;52.008;4.732;2023-02-28T01:48:04;2.77;;;2.47;;
19687;SDS011;9993;52.008;4.732;2023-02-28T01:51:03;3.43;;;2.80;;
19687;SDS011;9993;52.008;4.732;2023-02-28T01:53:46;8.87;;;3.30;;
19687;SDS011;9993;52.008;4.732;2023-02-28T01:56:26;5.87;;;3.27;;
19687;SDS011;9993;52.008;4.732;2023-02-28T01:59:01;3.17;;;2.50;;
19687;SDS011;9993;52.008;4.732;2023-02-28T02:01:29;5.53;;;2.90;;
19687;SDS011;9993;52.008;4.732;2023-02-28T02:03:57;2.90;;;2.60;;
19687;SDS011;9993;52.008;4.732;2023-02-28T02:09:26;5.27;;;3.00;;
19687;SDS011;9993;52.008;4.732;2023-02-28T02:17:36;3.43;;;2.90;;
19687;SDS011;9993;52.008;4.732;2023-02-28T02:49:01;4.57;;;3.50;;
19687;SDS011;9993;52.008;4.732;2023-02-28T02:51:28;7.87;;;3.47;;
19687;SDS011;9993;52.008;4.732;2023-02-28T02:54:30;4.27;;;3.30;;
19687;SDS011;9993;52.008;4.732;2023-02-28T02:57:36;3.73;;;3.20;;
19687;SDS011;9993;52.008;4.732;2023-02-28T03:00:03;3.57;;;2.73;;
19687;SDS011;9993;52.008;4.732;2023-02-28T03:02:57;6.90;;;3.30;;
19687;SDS011;9993;52.008;4.732;2023-02-28T03:26:53;3.27;;;2.93;;
19687;SDS011;9993;52.008;4.732;2023-02-28T03:29:33;6.20;;;3.23;;
19687;SDS011;9993;52.008;4.732;2023-02-28T03:32:10;4.03;;;3.47;;
19687;SDS011;9993;52.008;4.732;2023-02-28T03:37:22;4.47;;;3.03;;
19687;SDS011;9993;52.008;4.732;2023-02-28T03:39:50;5.60;;;3.37;;
19687;SDS011;9993;52.008;4.732;2023-02-28T03:42:22;3.80;;;3.50;;
19687;SDS011;9993;52.008;4.732;2023-02-28T03:45:02;6.57;;;3.50;;
19687;SDS011;9993;52.008;4.732;2023-02-28T03:47:33;5.43;;;2.93;;
19687;SDS011;9993;52.008;4.732;2023-02-28T03:50:21;4.70;;;3.60;;
19687;SDS011;9993;52.008;4.732;2023-02-28T03:52:47;4.07;;;3.40;;
19687;SDS011;9993;52.008;4.732;2023-02-28T03:55:13;5.37;;;4.13;;
19687;SDS011;9993;52.008;4.732;2023-02-28T03:57:41;5.07;;;3.50;;
19687;SDS011;9993;52.008;4.732;2023-02-28T04:00:12;5.33;;;3.30;;
19687;SDS011;9993;52.008;4.732;2023-02-28T04:02:39;5.57;;;3.97;;
19687;SDS011;9993;52.008;4.732;2023-02-28T04:05:05;6.63;;;4.17;;
19687;SDS011;9993;52.008;4.732;2023-02-28T04:07:31;5.60;;;3.83;;
19687;SDS011;9993;52.008;4.732;2023-02-28T04:09:57;4.27;;;3.70;;
19687;SDS011;9993;52.008;4.732;2023-02-28T04:12:22;6.57;;;4.13;;
19687;SDS011;9993;52.008;4.732;2023-02-28T04:14:49;5.47;;;3.90;;
19687;SDS011;9993;52.008;4.732;2023-02-28T04:17:14;4.70;;;3.20;;
19687;SDS011;9993;52.008;4.732;2023-02-28T04:19:40;4.30;;;3.43;;
19687;SDS011;9993;52.008;4.732;2023-02-28T04:22:05;5.67;;;3.60;;
19687;SDS011;9993;52.008;4.732;2023-02-28T04:24:30;5.10;;;3.43;;
19687;SDS011;9993;52.008;4.732;2023-02-28T05:48:52;5.77;;;4.43;;
19687;SDS011;9993;52.008;4.732;2023-02-28T05:51:29;6.17;;;5.20;;
19687;SDS011;9993;52.008;4.732;2023-02-28T05:56:45;6.83;;;4.17;;
19687;SDS011;9993;52.008;4.732;2023-02-28T05:59:11;5.53;;;4.00;;
19687;SDS011;9993;52.008;4.732;2023-02-28T06:01:45;4.07;;;3.67;;
19687;SDS011;9993;52.008;4.732;2023-02-28T06:04:31;4.80;;;3.67;;
19687;SDS011;9993;52.008;4.732;2023-02-28T06:09:55;7.43;;;3.53;;
19687;SDS011;9993;52.008;4.732;2023-02-28T06:12:35;4.10;;;3.70;;
19687;SDS011;9993;52.008;4.732;2023-02-28T06:15:00;3.73;;;3.40;;
19687;SDS011;9993;52.008;4.732;2023-02-28T06:17:28;3.87;;;3.50;;
19687;SDS011;9993;52.008;4.732;2023-02-28T06:22:59;4.67;;;3.60;;
19687;SDS011;9993;52.008;4.732;2023-02-28T06:25:37;3.90;;;3.47;;
19687;SDS011;9993;52.008;4.732;2023-02-28T06:28:02;3.97;;;3.50;;
19687;SDS011;9993;52.008;4.732;2023-02-28T06:30:31;4.83;;;3.50;;
19687;SDS011;9993;52.008;4.732;2023-02-28T06:32:56;4.27;;;3.40;;
19687;SDS011;9993;52.008;4.732;2023-02-28T06:35:27;3.47;;;2.77;;
19687;SDS011;9993;52.008;4.732;2023-02-28T06:37:53;3.60;;;3.33;;
19687;SDS011;9993;52.008;4.732;2023-02-28T06:40:18;5.50;;;3.10;;
19687;SDS011;9993;52.008;4.732;2023-02-28T06:42:43;3.10;;;2.80;;
19687;SDS011;9993;52.008;4.732;2023-02-28T06:45:09;4.27;;;3.87;;
19687;SDS011;9993;52.008;4.732;2023-02-28T06:47:35;4.53;;;3.50;;
19687;SDS011;9993;52.008;4.732;2023-02-28T06:50:01;3.90;;;3.60;;
19687;SDS011;9993;52.008;4.732;2023-02-28T06:52:26;4.03;;;3.50;;
19687;SDS011;9993;52.008;4.732;2023-02-28T06:54:52;5.07;;;3.93;;
19687;SDS011;9993;52.008;4.732;2023-02-28T06:57:26;3.43;;;3.13;;
19687;SDS011;9993;52.008;4.732;2023-02-28T06:59:52;5.30;;;3.57;;
19687;SDS011;9993;52.008;4.732;2023-02-28T07:02:17;4.00;;;3.50;;
19687;SDS011;9993;52.008;4.732;2023-02-28T07:04:42;4.30;;;3.90;;
19687;SDS011;9993;52.008;4.732;2023-02-28T07:07:09;3.60;;;3.23;;
19687;SDS011;9993;52.008;4.732;2023-02-28T07:09:35;4.43;;;3.83;;
19687;SDS011;9993;52.008;4.732;2023-02-28T07:12:00;5.27;;;3.63;;
19687;SDS011;9993;52.008;4.732;2023-02-28T07:14:25;3.57;;;3.27;;
19687;SDS011;9993;52.008;4.732;2023-02-28T07:16:51;4.43;;;4.03;;
19687;SDS011;9993;52.008;4.732;2023-02-28T07:19:16;3.73;;;3.37;;
19687;SDS011;9993;52.008;4.732;2023-02-28T07:21:41;3.77;;;3.47;;
19687;SDS011;9993;52.008;4.732;2023-02-28T07:24:06;3.90;;;3.50;;
19687;SDS011;9993;52.008;4.732;2023-02-28T07:26:32;5.73;;;3.57;;
19687;SDS011;9993;52.008;4.732;2023-02-28T07:28:59;4.87;;;2.97;;
19687;SDS011;9993;52.008;4.732;2023-02-28T07:31:24;3.97;;;3.27;;
19687;SDS011;9993;52.008;4.732;2023-02-28T07:33:49;5.80;;;3.47;;
19687;SDS011;9993;52.008;4.732;2023-02-28T07:36:16;4.87;;;3.40;;
19687;SDS011;9993;52.008;4.732;2023-02-28T07:38:43;3.67;;;3.20;;
19687;SDS011;9993;52.008;4.732;2023-02-28T07:41:09;5.70;;;4.27;;
19687;SDS011;9993;52.008;4.732;2023-02-28T07:43:35;4.47;;;3.67;;
19687;SDS011;9993;52.008;4.732;2023-02-28T07:46:07;5.23;;;3.63;;
19687;SDS011;9993;52.008;4.732;2023-02-28T07:48:33;5.00;;;3.53;;
19687;SDS011;9993;52.008;4.732;2023-02-28T07:50:58;4.77;;;4.20;;
19687;SDS011;9993;52.008;4.732;2023-02-28T07:53:24;6.70;;;5.50;;
19687;SDS011;9993;52.008;4.732;2023-02-28T07:55:49;6.00;;;4.33;;
19687;SDS011;9993;52.008;4.732;2023-02-28T07:58:14;6.47;;;4.53;;
19687;SDS011;9993;52.008;4.732;2023-02-28T08:00:40;12.40;;;8.07;;
19687;SDS011;9993;52.008;4.732;2023-02-28T08:03:05;6.07;;;5.13;;
19687;SDS011;9993;52.008;4.732;2023-02-28T08:05:30;5.17;;;4.67;;
19687;SDS011;9993;52.008;4.732;2023-02-28T08:07:55;7.50;;;6.70;;
19687;SDS011;9993;52.008;4.732;2023-02-28T08:10:21;5.47;;;4.70;;
19687;SDS011;9993;52.008;4.732;2023-02-28T08:12:46;5.83;;;5.30;;
19687;SDS011;9993;52.008;4.732;2023-02-28T08:15:11;6.50;;;4.43;;
19687;SDS011;9993;52.008;4.732;2023-02-28T08:17:36;7.60;;;5.67;;
19687;SDS011;9993;52.008;4.732;2023-02-28T08:20:02;7.30;;;5.63;;
19687;SDS011;9993;52.008;4.732;2023-02-28T08:22:29;9.67;;;6.67;;
19687;SDS011;9993;52.008;4.732;2023-02-28T08:24:54;11.17;;;8.37;;
19687;SDS011;9993;52.008;4.732;2023-02-28T08:27:19;7.30;;;6.10;;
19687;SDS011;9993;52.008;4.732;2023-02-28T08:29:44;8.83;;;5.60;;
19687;SDS011;9993;52.008;4.732;2023-02-28T08:32:09;8.37;;;5.97;;
19687;SDS011;9993;52.008;4.732;2023-02-28T08:34:35;8.90;;;6.27;;
19687;SDS011;9993;52.008;4.732;2023-02-28T08:37:00;10.03;;;6.27;;
19687;SDS011;9993;52.008;4.732;2023-02-28T08:39:25;7.83;;;5.80;;
19687;SDS011;9993;52.008;4.732;2023-02-28T08:41:50;12.73;;;5.77;;
19687;SDS011;9993;52.008;4.732;2023-02-28T08:44:16;8.27;;;5.73;;
19687;SDS011;9993;52.008;4.732;2023-02-28T08:46:41;11.53;;;6.23;;
19687;SDS011;9993;52.008;4.732;2023-02-28T08:49:06;11.80;;;6.80;;
19687;SDS011;9993;52.008;4.732;2023-02-28T08:51:32;8.73;;;6.50;;
19687;SDS011;9993;52.008;4.732;2023-02-28T08:53:58;11.03;;;5.90;;
19687;SDS011;9993;52.008;4.732;2023-02-28T08:56:26;9.03;;;6.37;;
19687;SDS011;9993;52.008;4.732;2023-02-28T08:58:51;8.40;;;6.07;;
19687;SDS011;9993;52.008;4.732;2023-02-28T09:01:21;8.30;;;5.43;;
19687;SDS011;9993;52.008;4.732;2023-02-28T09:03:47;12.90;;;5.13;;
19687;SDS011;9993;52.008;4.732;2023-02-28T09:06:13;6.77;;;5.03;;
19687;SDS011;9993;52.008;4.732;2023-02-28T09:08:39;9.50;;;6.30;;
19687;SDS011;9993;52.008;4.732;2023-02-28T09:11:04;8.57;;;6.07;;
19687;SDS011;9993;52.008;4.732;2023-02-28T09:13:29;9.20;;;5.97;;
19687;SDS011;9993;52.008;4.732;2023-02-28T09:15:57;6.10;;;5.47;;
19687;SDS011;9993;52.008;4.732;2023-02-28T09:18:22;13.20;;;6.30;;
19687;SDS011;9993;52.008;4.732;2023-02-28T09:20:48;9.70;;;5.13;;
19687;SDS011;9993;52.008;4.732;2023-02-28T09:23:13;10.60;;;6.50;;
19687;SDS011;9993;52.008;4.732;2023-02-28T09:25:44;9.27;;;5.53;;
19687;SDS011;9993;52.008;4.732;2023-02-28T09:28:10;6.90;;;4.90;;
19687;SDS011;9993;52.008;4.732;2023-02-28T09:30:36;8.33;;;5.20;;
19687;SDS011;9993;52.008;4.732;2023-02-28T09:33:01;10.57;;;5.83;;
19687;SDS011;9993;52.008;4.732;2023-02-28T09:35:26;10.10;;;6.43;;
19687;SDS011;9993;52.008;4.732;2023-02-28T09:37:51;7.87;;;6.53;;
19687;SDS011;9993;52.008;4.732;2023-02-28T09:40:18;12.30;;;7.23;;
19687;SDS011;9993;52.008;4.732;2023-02-28T09:42:45;9.70;;;6.47;;
19687;SDS011;9993;52.008;4.732;2023-02-28T09:45:33;7.87;;;6.97;;
19687;SDS011;9993;52.008;4.732;2023-02-28T09:47:58;9.27;;;6.27;;
19687;SDS011;9993;52.008;4.732;2023-02-28T09:50:35;8.00;;;6.43;;
19687;SDS011;9993;52.008;4.732;2023-02-28T09:53:06;9.47;;;6.37;;
19687;SDS011;9993;52.008;4.732;2023-02-28T09:55:39;7.37;;;5.87;;
19687;SDS011;9993;52.008;4.732;2023-02-28T09:58:10;8.40;;;5.97;;
19687;SDS011;9993;52.008;4.732;2023-02-28T10:00:40;8.17;;;6.00;;
19687;SDS011;9993;52.008;4.732;2023-02-28T10:08:13;6.60;;;5.10;;
19687;SDS011;9993;52.008;4.732;2023-02-28T10:10:45;9.27;;;6.17;;
19687;SDS011;9993;52.008;4.732;2023-02-28T10:13:33;6.87;;;5.37;;
19687;SDS011;9993;52.008;4.732;2023-02-28T10:16:06;7.90;;;5.33;;
19687;SDS011;9993;52.008;4.732;2023-02-28T10:21:38;6.23;;;5.10;;
19687;SDS011;9993;52.008;4.732;2023-02-28T10:24:11;6.10;;;5.47;;
19687;SDS011;9993;52.008;4.732;2023-02-28T10:26:38;5.80;;;4.93;;
19687;SDS011;9993;52.008;4.732;2023-02-28T10:29:07;5.00;;;4.60;;
19687;SDS011;9993;52.008;4.732;2023-02-28T10:31:33;5.60;;;4.93;;
19687;SDS011;9993;52.008;4.732;2023-02-28T10:33:58;6.20;;;4.23;;
19687;SDS011;9993;52.008;4.732;2023-02-28T10:36:23;3.70;;;3.40;;
19687;SDS011;9993;52.008;4.732;2023-02-28T10:38:48;4.73;;;4.13;;
19687;SDS011;9993;52.008;4.732;2023-02-28T10:41:33;4.70;;;4.30;;
19687;SDS011;9993;52.008;4.732;2023-02-28T10:46:39;3.90;;;3.60;;
19687;SDS011;9993;52.008;4.732;2023-02-28T10:49:05;3.50;;;3.20;;
19687;SDS011;9993;52.008;4.732;2023-02-28T10:51:38;5.83;;;3.63;;
19687;SDS011;9993;52.008;4.732;2023-02-28T10:54:04;4.00;;;3.70;;
19687;SDS011;9993;52.008;4.732;2023-02-28T10:56:30;3.53;;;3.20;;
19687;SDS011;9993;52.008;4.732;2023-02-28T11:04:01;3.70;;;3.30;;
19687;SDS011;9993;52.008;4.732;2023-02-28T11:06:29;5.57;;;3.07;;
19687;SDS011;9993;52.008;4.732;2023-02-28T11:08:56;2.80;;;2.60;;
19687;SDS011;9993;52.008;4.732;2023-02-28T11:11:24;2.93;;;2.73;;
19687;SDS011;9993;52.008;4.732;2023-02-28T11:14:17;3.27;;;2.80;;
19687;SDS011;9993;52.008;4.732;2023-02-28T11:16:37;2.87;;;2.60;;
19687;SDS011;9993;52.008;4.732;2023-02-28T11:19:03;3.10;;;2.87;;
19687;SDS011;9993;52.008;4.732;2023-02-28T11:23:58;3.20;;;3.00;;
19687;SDS011;9993;52.008;4.732;2023-02-28T11:26:40;3.30;;;3.00;;
19687;SDS011;9993;52.008;4.732;2023-02-28T11:29:09;2.83;;;2.63;;
19687;SDS011;9993;52.008;4.732;2023-02-28T11:31:35;2.93;;;2.50;;
19687;SDS011;9993;52.008;4.732;2023-02-28T11:34:01;3.00;;;2.70;;
19687;SDS011;9993;52.008;4.732;2023-02-28T11:36:27;2.97;;;2.77;;
19687;SDS011;9993;52.008;4.732;2023-02-28T11:38:53;2.70;;;2.50;;
19687;SDS011;9993;52.008;4.732;2023-02-28T11:54:59;2.75;;;2.55;;
19687;SDS011;9993;52.008;4.732;2023-02-28T11:57:37;3.13;;;2.92;;
19687;SDS011;9993;52.008;4.732;2023-02-28T12:00:15;3.00;;;2.80;;
19687;SDS011;9993;52.008;4.732;2023-02-28T12:03:03;4.40;;;2.50;;
19687;SDS011;9993;52.008;4.732;2023-02-28T12:05:36;2.65;;;2.45;;
19687;SDS011;9993;52.008;4.732;2023-02-28T12:08:07;2.72;;;2.53;;
19687;SDS011;9993;52.008;4.732;2023-02-28T12:13:21;2.80;;;2.60;;
19687;SDS011;9993;52.008;4.732;2023-02-28T12:16:10;2.40;;;2.30;;
19687;SDS011;9993;52.008;4.732;2023-02-28T12:26:40;2.60;;;2.40;;
19687;SDS011;9993;52.008;4.732;2023-02-28T12:29:10;2.65;;;2.45;;
19687;SDS011;9993;52.008;4.732;2023-02-28T12:31:42;3.00;;;2.58;;
19687;SDS011;9993;52.008;4.732;2023-02-28T12:34:12;2.40;;;2.20;;
19687;SDS011;9993;52.008;4.732;2023-02-28T12:36:38;2.47;;;2.28;;
19687;SDS011;9993;52.008;4.732;2023-02-28T12:39:08;2.10;;;2.00;;
19687;SDS011;9993;52.008;4.732;2023-02-28T12:41:41;2.97;;;2.78;;
19687;SDS011;9993;52.008;4.732;2023-02-28T12:44:15;2.47;;;2.28;;
19687;SDS011;9993;52.008;4.732;2023-02-28T12:46:43;2.67;;;2.45;;
19687;SDS011;9993;52.008;4.732;2023-02-28T12:49:11;3.05;;;2.67;;
19687;SDS011;9993;52.008;4.732;2023-02-28T12:51:37;2.92;;;2.72;;
19687;SDS011;9993;52.008;4.732;2023-02-28T12:56:48;2.15;;;2.00;;
19687;SDS011;9993;52.008;4.732;2023-02-28T13:07:08;3.53;;;2.93;;
19687;SDS011;9993;52.008;4.732;2023-02-28T13:09:35;2.60;;;2.50;;
19687;SDS011;9993;52.008;4.732;2023-02-28T13:12:02;2.83;;;2.55;;
19687;SDS011;9993;52.008;4.732;2023-02-28T13:14:37;2.20;;;2.10;;
19687;SDS011;9993;52.008;4.732;2023-02-28T13:19:46;3.25;;;2.90;;
19687;SDS011;9993;52.008;4.732;2023-02-28T13:25:02;2.80;;;2.60;;
19687;SDS011;9993;52.008;4.732;2023-02-28T13:27:38;3.05;;;2.85;;
19687;SDS011;9993;52.008;4.732;2023-02-28T13:33:07;3.00;;;2.53;;
19687;SDS011;9993;52.008;4.732;2023-02-28T13:35:35;2.92;;;2.72;;
19687;SDS011;9993;52.008;4.732;2023-02-28T13:38:09;2.70;;;2.40;;
19687;SDS011;9993;52.008;4.732;2023-02-28T13:40:37;2.70;;;2.50;;
19687;SDS011;9993;52.008;4.732;2023-02-28T13:43:03;3.05;;;2.83;;
19687;SDS011;9993;52.008;4.732;2023-02-28T13:45:32;2.42;;;2.25;;
19687;SDS011;9993;52.008;4.732;2023-02-28T13:48:04;3.10;;;2.90;;
19687;SDS011;9993;52.008;4.732;2023-02-28T14:03:47;2.97;;;2.67;;
19687;SDS011;9993;52.008;4.732;2023-02-28T14:08:52;3.28;;;2.97;;
19687;SDS011;9993;52.008;4.732;2023-02-28T14:14:53;3.13;;;2.70;;
19687;SDS011;9993;52.008;4.732;2023-02-28T14:16:56;3.22;;;2.80;;
19687;SDS011;9993;52.008;4.732;2023-02-28T14:19:26;2.50;;;2.30;;
19687;SDS011;9993;52.008;4.732;2023-02-28T14:27:15;2.53;;;2.33;;
19687;SDS011;9993;52.008;4.732;2023-02-28T14:34:46;2.53;;;2.33;;
19687;SDS011;9993;52.008;4.732;2023-02-28T14:37:15;2.53;;;2.40;;
19687;SDS011;9993;52.008;4.732;2023-02-28T14:39:41;2.67;;;2.47;;
19687;SDS011;9993;52.008;4.732;2023-02-28T14:42:28;2.92;;;2.72;;
19687;SDS011;9993;52.008;4.732;2023-02-28T14:44:55;2.80;;;2.58;;
19687;SDS011;9993;52.008;4.732;2023-02-28T14:47:21;3.00;;;2.80;;
19687;SDS011;9993;52.008;4.732;2023-02-28T14:49:48;2.55;;;2.45;;
19687;SDS011;9993;52.008;4.732;2023-02-28T14:52:19;3.17;;;2.72;;
19687;SDS011;9993;52.008;4.732;2023-02-28T14:54:45;3.67;;;2.90;;
19687;SDS011;9993;52.008;4.732;2023-02-28T14:57:27;2.65;;;2.45;;
19687;SDS011;9993;52.008;4.732;2023-02-28T14:59:59;2.90;;;2.70;;
19687;SDS011;9993;52.008;4.732;2023-02-28T15:02:25;2.65;;;2.50;;
19687;SDS011;9993;52.008;4.732;2023-02-28T15:04:58;3.08;;;2.50;;
19687;SDS011;9993;52.008;4.732;2023-02-28T15:07:24;2.95;;;2.40;;
19687;SDS011;9993;52.008;4.732;2023-02-28T15:12:55;2.75;;;2.55;;
19687;SDS011;9993;52.008;4.732;2023-02-28T15:15:25;3.08;;;2.88;;
19687;SDS011;9993;52.008;4.732;2023-02-28T15:17:51;3.20;;;2.70;;
19687;SDS011;9993;52.008;4.732;2023-02-28T15:20:19;2.80;;;2.60;;
19687;SDS011;9993;52.008;4.732;2023-02-28T15:22:44;3.08;;;2.80;;
19687;SDS011;9993;52.008;4.732;2023-02-28T15:25:13;4.72;;;3.03;;
19687;SDS011;9993;52.008;4.732;2023-02-28T15:27:42;3.03;;;2.80;;
19687;SDS011;9993;52.008;4.732;2023-02-28T15:30:15;3.13;;;2.78;;
19687;SDS011;9993;52.008;4.732;2023-02-28T15:32:41;3.03;;;2.83;;
19687;SDS011;9993;52.008;4.732;2023-02-28T15:37:54;3.30;;;3.10;;
19687;SDS011;9993;52.008;4.732;2023-02-28T15:40:27;2.73;;;2.53;;
19687;SDS011;9993;52.008;4.732;2023-02-28T15:43:13;2.63;;;2.43;;
19687;SDS011;9993;52.008;4.732;2023-02-28T15:45:46;3.10;;;2.83;;
19687;SDS011;9993;52.008;4.732;2023-02-28T15:48:16;3.20;;;2.83;;
19687;SDS011;9993;52.008;4.732;2023-02-28T15:50:42;3.63;;;3.33;;
19687;SDS011;9993;52.008;4.732;2023-02-28T15:53:18;3.13;;;2.93;;
19687;SDS011;9993;52.008;4.732;2023-02-28T15:55:44;4.43;;;4.03;;
19687;SDS011;9993;52.008;4.732;2023-02-28T15:58:10;3.83;;;3.60;;
19687;SDS011;9993;52.008;4.732;2023-02-28T16:00:37;4.23;;;3.83;;
19687;SDS011;9993;52.008;4.732;2023-02-28T16:03:22;3.87;;;3.67;;
19687;SDS011;9993;52.008;4.732;2023-02-28T16:05:50;4.30;;;4.00;;
19687;SDS011;9993;52.008;4.732;2023-02-28T16:08:30;4.10;;;3.80;;
19687;SDS011;9993;52.008;4.732;2023-02-28T16:10:56;4.70;;;4.30;;
19687;SDS011;9993;52.008;4.732;2023-02-28T16:13:21;4.23;;;3.73;;
19687;SDS011;9993;52.008;4.732;2023-02-28T16:15:46;6.50;;;5.90;;
19687;SDS011;9993;52.008;4.732;2023-02-28T16:18:14;4.47;;;4.07;;
19687;SDS011;9993;52.008;4.732;2023-02-28T16:20:39;4.67;;;4.27;;
19687;SDS011;9993;52.008;4.732;2023-02-28T16:23:04;4.63;;;4.13;;
19687;SDS011;9993;52.008;4.732;2023-02-28T16:25:37;4.13;;;3.73;;
19687;SDS011;9993;52.008;4.732;2023-02-28T16:28:03;4.33;;;3.93;;
19687;SDS011;9993;52.008;4.732;2023-02-28T16:30:29;5.73;;;3.70;;
19687;SDS011;9993;52.008;4.732;2023-02-28T16:32:57;4.00;;;3.70;;
19687;SDS011;9993;52.008;4.732;2023-02-28T16:35:23;4.33;;;4.03;;
19687;SDS011;9993;52.008;4.732;2023-02-28T16:37:50;4.23;;;3.83;;
19687;SDS011;9993;52.008;4.732;2023-02-28T16:40:17;5.00;;;4.30;;
19687;SDS011;9993;52.008;4.732;2023-02-28T16:42:43;4.47;;;3.70;;
19687;SDS011;9993;52.008;4.732;2023-02-28T16:45:18;5.37;;;4.57;;
19687;SDS011;9993;52.008;4.732;2023-02-28T16:47:45;3.30;;;3.00;;
19687;SDS011;9993;52.008;4.732;2023-02-28T16:50:14;4.97;;;4.07;;
19687;SDS011;9993;52.008;4.732;2023-02-28T16:52:40;4.93;;;4.53;;
19687;SDS011;9993;52.008;4.732;2023-02-28T16:55:05;5.57;;;4.70;;
19687;SDS011;9993;52.008;4.732;2023-02-28T16:57:30;3.80;;;3.50;;
19687;SDS011;9993;52.008;4.732;2023-02-28T16:59:55;4.70;;;4.30;;
19687;SDS011;9993;52.008;4.732;2023-02-28T17:02:21;4.27;;;3.93;;
19687;SDS011;9993;52.008;4.732;2023-02-28T17:04:46;5.30;;;4.30;;
19687;SDS011;9993;52.008;4.732;2023-02-28T17:07:12;4.57;;;3.83;;
19687;SDS011;9993;52.008;4.732;2023-02-28T17:09:38;4.03;;;3.73;;
19687;SDS011;9993;52.008;4.732;2023-02-28T17:12:03;4.80;;;4.50;;
19687;SDS011;9993;52.008;4.732;2023-02-28T17:14:28;4.40;;;4.10;;
19687;SDS011;9993;52.008;4.732;2023-02-28T17:16:53;6.00;;;4.20;;
19687;SDS011;9993;52.008;4.732;2023-02-28T17:19:19;4.53;;;4.13;;
19687;SDS011;9993;52.008;4.732;2023-02-28T17:21:44;3.90;;;3.60;;
19687;SDS011;9993;52.008;4.732;2023-02-28T17:24:10;6.70;;;4.33;;
19687;SDS011;9993;52.008;4.732;2023-02-28T17:26:39;4.37;;;3.97;;
19687;SDS011;9993;52.008;4.732;2023-02-28T17:29:05;4.03;;;3.67;;
19687;SDS011;9993;52.008;4.732;2023-02-28T17:31:30;4.23;;;3.87;;
19687;SDS011;9993;52.008;4.732;2023-02-28T17:33:57;4.80;;;4.40;;
19687;SDS011;9993;52.008;4.732;2023-02-28T17:36:24;4.67;;;4.27;;
19687;SDS011;9993;52.008;4.732;2023-02-28T17:38:51;5.17;;;4.60;;
19687;SDS011;9993;52.008;4.732;2023-02-28T17:41:16;5.10;;;4.60;;
19687;SDS011;9993;52.008;4.732;2023-02-28T17:43:41;5.37;;;4.87;;
19687;SDS011;9993;52.008;4.732;2023-02-28T17:46:16;4.67;;;4.27;;
19687;SDS011;9993;52.008;4.732;2023-02-28T17:48:43;6.10;;;4.70;;
19687;SDS011;9993;52.008;4.732;2023-02-28T17:51:09;6.13;;;4.83;;
19687;SDS011;9993;52.008;4.732;2023-02-28T17:53:36;5.00;;;4.60;;
19687;SDS011;9993;52.008;4.732;2023-02-28T17:56:02;5.33;;;4.57;;
19687;SDS011;9993;52.008;4.732;2023-02-28T17:58:27;4.90;;;4.50;;
19687;SDS011;9993;52.008;4.732;2023-02-28T18:00:52;6.17;;;4.93;;
19687;SDS011;9993;52.008;4.732;2023-02-28T18:03:19;6.17;;;4.90;;
19687;SDS011;9993;52.008;4.732;2023-02-28T18:05:45;7.40;;;4.60;;
19687;SDS011;9993;52.008;4.732;2023-02-28T18:08:10;5.30;;;4.80;;
19687;SDS011;9993;52.008;4.732;2023-02-28T18:10:37;5.67;;;5.17;;
19687;SDS011;9993;52.008;4.732;2023-02-28T18:13:02;4.80;;;3.93;;
19687;SDS011;9993;52.008;4.732;2023-02-28T18:15:30;5.53;;;5.00;;
19687;SDS011;9993;52.008;4.732;2023-02-28T18:17:56;5.17;;;4.77;;
19687;SDS011;9993;52.008;4.732;2023-02-28T18:20:21;6.07;;;5.43;;
19687;SDS011;9993;52.008;4.732;2023-02-28T18:22:46;8.03;;;5.90;;
19687;SDS011;9993;52.008;4.732;2023-02-28T18:25:11;6.07;;;5.47;;
19687;SDS011;9993;52.008;4.732;2023-02-28T18:27:57;6.03;;;5.43;;
19687;SDS011;9993;52.008;4.732;2023-02-28T18:30:29;5.40;;;4.90;;
19687;SDS011;9993;52.008;4.732;2023-02-28T18:33:00;7.13;;;5.90;;
19687;SDS011;9993;52.008;4.732;2023-02-28T18:35:27;5.57;;;4.53;;
19687;SDS011;9993;52.008;4.732;2023-02-28T18:38:08;7.30;;;5.57;;
19687;SDS011;9993;52.008;4.732;2023-02-28T18:40:42;7.17;;;6.37;;
19687;SDS011;9993;52.008;4.732;2023-02-28T18:45:54;9.80;;;6.70;;
19687;SDS011;9993;52.008;4.732;2023-02-28T18:48:22;7.20;;;5.93;;
19687;SDS011;9993;52.008;4.732;2023-02-28T18:50:48;7.40;;;5.50;;
19687;SDS011;9993;52.008;4.732;2023-02-28T18:53:16;6.07;;;5.57;;
19687;SDS011;9993;52.008;4.732;2023-02-28T18:55:42;7.23;;;6.40;;
19687;SDS011;9993;52.008;4.732;2023-02-28T18:58:10;10.23;;;6.93;;
19687;SDS011;9993;52.008;4.732;2023-02-28T19:00:35;8.60;;;6.13;;
19687;SDS011;9993;52.008;4.732;2023-02-28T19:03:01;6.57;;;5.37;;
19687;SDS011;9993;52.008;4.732;2023-02-28T19:05:28;7.30;;;6.60;;
19687;SDS011;9993;52.008;4.732;2023-02-28T19:07:57;7.33;;;6.60;;
19687;SDS011;9993;52.008;4.732;2023-02-28T19:10:22;8.60;;;7.80;;
19687;SDS011;9993;52.008;4.732;2023-02-28T19:12:48;7.23;;;5.50;;
19687;SDS011;9993;52.008;4.732;2023-02-28T19:15:13;6.40;;;5.80;;
19687;SDS011;9993;52.008;4.732;2023-02-28T19:17:38;10.67;;;7.77;;
19687;SDS011;9993;52.008;4.732;2023-02-28T19:20:05;10.57;;;7.53;;
19687;SDS011;9993;52.008;4.732;2023-02-28T19:22:30;7.60;;;6.90;;